Time;durP1;ratioP1;P1;durP2;ratioP2;P2;SDS_P1;SDS_P2;PMS_P1;PMS_P2;Temp;Humidity;BMP_temperature;BMP_pressure;BME280_temperature;BME280_humidity;BME280_pressure;Samples;Min_cycle;Max_cycle;Signal;HPM_P1;HPM_P2
2022/06/16 02:46:09;;;;;;;;;;;;;;;;;;;;;
2022/06/16 03:00:07;;;;;;;16.95;7.03;;;15.40;99.90;;;;;;5926066;24;20027;-91
2022/06/16 03:03:30;;;;;;;;;;;;;;;;;;;;;
2022/06/16 03:17:34;;;;;;;;;;;;;;;;;;;;;
2022/06/16 05:00:37;;;;;;;18.75;9.85;;;14.50;99.90;;;;;;6245500;23;20005;-90
2022/06/16 05:03:07;;;;;;;17.60;9.98;;;15.00;99.90;;;;;;6218065;23;20139;-89
2022/06/16 05:05:37;;;;;;;20.63;10.15;;;15.00;99.90;;;;;;6271288;22;20002;-90
2022/06/16 05:08:15;;;;;;;21.35;9.77;;;14.70;99.90;;;;;;6310424;22;20553;-91
2022/06/16 05:10:49;;;;;;;22.88;9.35;;;14.90;99.90;;;;;;6309870;22;20014;-92
2022/06/16 05:13:32;;;;;;;16.75;9.10;;;15.00;99.90;;;;;;6309623;22;20081;-90
2022/06/16 05:16:00;;;;;;;15.32;9.07;;;15.10;99.90;;;;;;6310673;22;20057;-90
2022/06/16 05:18:26;;;;;;;;;;;15.10;99.90;;;;;;6311598;22;20031;-91
2022/06/16 05:20:52;;;;;;;23.02;9.90;;;15.10;99.90;;;;;;6310642;22;19905;-90
2022/06/16 05:23:18;;;;;;;21.77;8.57;;;15.10;99.90;;;;;;6311385;22;20011;-92
2022/06/16 05:26:05;;;;;;;15.13;8.77;;;15.30;99.90;;;;;;6309841;22;20030;-92
2022/06/16 05:28:31;;;;;;;14.82;8.45;;;15.30;99.90;;;;;;6309386;22;20014;-89
2022/06/16 05:30:57;;;;;;;19.33;8.95;;;15.40;99.90;;;;;;6309904;22;20053;-89
2022/06/16 05:33:26;;;;;;;16.35;8.35;;;15.50;99.90;;;;;;6310181;22;19998;-89
2022/06/16 05:36:03;;;;;;;;;;;15.50;99.90;;;;;;6309682;22;20089;-91
2022/06/16 05:38:29;;;;;;;19.07;8.30;;;15.60;99.90;;;;;;6309322;22;19905;-89
2022/06/16 05:41:10;;;;;;;18.42;8.05;;;15.70;99.90;;;;;;6309679;22;19999;-91
2022/06/16 05:43:44;;;;;;;21.40;8.18;;;15.70;99.90;;;;;;6308842;22;20430;-90
2022/06/16 05:46:40;;;;;;;13.63;8.07;;;15.80;99.90;;;;;;6308847;22;20368;-90
2022/06/16 05:49:06;;;;;;;15.85;7.82;;;15.90;99.90;;;;;;6308650;22;20060;-88
2022/06/16 05:51:37;;;;;;;16.15;8.40;;;16.00;99.90;;;;;;6308167;22;19999;-90
2022/06/16 05:54:03;;;;;;;20.38;8.43;;;16.00;99.90;;;;;;6308435;22;20034;-90
2022/06/16 05:56:37;;;;;;;23.05;8.80;;;16.00;99.90;;;;;;6309492;22;20010;-90
2022/06/16 05:59:15;;;;;;;15.38;7.65;;;16.00;99.90;;;;;;6309192;22;20522;-90
2022/06/16 06:01:56;;;;;;;;;;;;;;;;;;;;;
2022/06/16 06:04:31;;;;;;;18.45;7.75;;;16.30;99.90;;;;;;6336242;22;20082;-92
2022/06/16 06:06:59;;;;;;;15.32;7.50;;;16.40;99.90;;;;;;6309408;22;20504;-91
2022/06/16 06:17:47;;;;;;;18.42;6.97;;;16.50;99.90;;;;;;6336035;22;20014;-91
2022/06/16 06:20:12;;;;;;;;;;;16.70;99.90;;;;;;6309030;22;20049;-93
2022/06/16 06:22:40;;;;;;;15.20;7.18;;;16.80;99.90;;;;;;6308437;22;19903;-92
2022/06/16 06:25:13;;;;;;;13.85;6.82;;;16.70;99.90;;;;;;6308618;22;20006;-91
2022/06/16 06:27:54;;;;;;;15.40;7.28;;;16.70;99.90;;;;;;6308351;22;20003;-91
2022/06/16 06:30:23;;;;;;;18.75;7.18;;;16.80;99.90;;;;;;6308391;22;20599;-91
2022/06/16 06:32:50;;;;;;;15.57;6.72;;;17.00;99.90;;;;;;6308383;22;20056;-91
2022/06/16 06:35:16;;;;;;;14.85;7.00;;;17.00;99.90;;;;;;6308547;22;20003;-92
2022/06/16 06:37:43;;;;;;;13.40;6.30;;;17.00;99.90;;;;;;6308677;22;20075;-89
2022/06/16 06:40:21;;;;;;;16.35;6.15;;;17.20;99.90;;;;;;6308627;22;20040;-89
2022/06/16 06:43:05;;;;;;;10.07;5.65;;;17.20;99.90;;;;;;6308079;22;20014;-91
2022/06/16 06:45:43;;;;;;;15.65;6.20;;;17.30;99.90;;;;;;6308939;22;20082;-90
2022/06/16 06:48:19;;;;;;;;;;;;;;;;;;;;;
2022/06/16 06:50:46;;;;;;;14.52;5.65;;;17.40;99.90;;;;;;6335532;22;20079;-91
2022/06/16 06:53:11;;;;;;;13.63;5.85;;;17.50;99.90;;;;;;6307362;22;20031;-90
2022/06/16 06:55:43;;;;;;;13.75;5.80;;;17.50;99.90;;;;;;6306939;22;20438;-91
2022/06/16 06:58:22;;;;;;;18.58;5.70;;;17.60;99.90;;;;;;6307255;22;20065;-90
2022/06/16 07:00:53;;;;;;;19.33;5.40;;;17.80;99.90;;;;;;6306785;22;20013;-90
2022/06/16 07:03:43;;;;;;;13.52;5.20;;;17.80;99.90;;;;;;6307452;22;20347;-91
2022/06/16 07:06:17;;;;;;;8.45;5.10;;;17.90;99.90;;;;;;6307130;22;20003;-91
2022/06/16 07:08:53;;;;;;;14.65;5.00;;;18.00;99.90;;;;;;6307173;22;20021;-92
2022/06/16 07:11:25;;;;;;;11.57;4.60;;;18.10;99.90;;;;;;6306554;22;20006;-91
2022/06/16 07:14:03;;;;;;;;;;;;;;;;;;;;;
2022/06/16 07:17:25;;;;;;;;;;;;;;;;;;;;;
2022/06/16 07:20:21;;;;;;;9.05;3.88;;;18.40;99.90;;;;;;6312925;22;20280;-91
2022/06/16 07:25:53;;;;;;;8.77;3.90;;;18.60;99.90;;;;;;6312850;22;20007;-92
2022/06/16 07:28:20;;;;;;;9.88;4.00;;;18.80;99.90;;;;;;6308494;22;20018;-93
2022/06/16 07:30:46;;;;;;;13.93;3.72;;;19.00;99.90;;;;;;6307251;22;20037;-91
2022/06/16 07:33:17;;;;;;;10.20;3.72;;;19.10;99.90;;;;;;6307808;22;20007;-91
2022/06/16 07:35:44;;;;;;;9.90;3.45;;;19.20;99.90;;;;;;6308060;22;20011;-92
2022/06/16 07:38:14;;;;;;;9.68;3.63;;;19.20;99.90;;;;;;6308552;22;20025;-92
2022/06/16 07:40:40;;;;;;;10.38;3.40;;;19.20;99.90;;;;;;6308924;22;20003;-90
2022/06/16 07:43:56;;;;;;;;;;;;;;;;;;;;;
2022/06/16 07:46:24;;;;;;;8.00;3.40;;;19.40;99.90;;;;;;6336418;22;20091;-90
2022/06/16 07:48:51;;;;;;;8.55;3.40;;;19.60;99.90;;;;;;6307247;22;20025;-92
2022/06/16 07:51:17;;;;;;;10.25;3.15;;;19.60;99.90;;;;;;6307228;22;20346;-92
2022/06/16 07:53:43;;;;;;;13.45;3.42;;;19.70;99.90;;;;;;6307634;22;20039;-90
2022/06/16 07:56:09;;;;;;;10.10;3.28;;;19.80;99.90;;;;;;6306858;22;20014;-90
2022/06/16 07:58:40;;;;;;;10.27;2.95;;;19.90;99.90;;;;;;6307302;22;20002;-91
2022/06/16 08:01:18;;;;;;;;;;;;;;;;;;;;;
2022/06/16 08:03:44;;;;;;;7.15;3.42;;;20.10;99.90;;;;;;6335615;22;20082;-92
2022/06/16 08:06:13;;;;;;;8.70;4.22;;;20.20;99.90;;;;;;6335818;22;19994;-91
2022/06/16 08:08:43;;;;;;;6.60;3.60;;;20.20;99.90;;;;;;6307320;22;20015;-90
2022/06/16 08:13:57;;;;;;;9.30;3.40;;;20.60;99.90;;;;;;6333686;22;20530;-92
2022/06/16 08:16:26;;;;;;;5.50;3.20;;;20.80;99.90;;;;;;6308681;22;20006;-91
2022/06/16 08:18:54;;;;;;;8.27;3.50;;;20.90;99.90;;;;;;6309207;22;20051;-90
2022/06/16 08:21:20;;;;;;;8.90;3.30;;;20.90;99.90;;;;;;6308924;22;20006;-92
2022/06/16 08:23:45;;;;;;;8.95;3.67;;;21.10;99.90;;;;;;6309186;22;20006;-90
2022/06/16 08:26:16;;;;;;;7.90;3.03;;;21.20;99.90;;;;;;6308649;22;20090;-90
2022/06/16 08:28:45;;;;;;;7.75;3.13;;;21.30;99.90;;;;;;6307541;22;20350;-91
2022/06/16 08:31:20;;;;;;;5.57;2.90;;;21.60;99.90;;;;;;6308144;22;20346;-91
2022/06/16 08:33:49;;;;;;;9.65;3.35;;;21.90;99.90;;;;;;6308728;22;20007;-91
2022/06/16 08:36:39;;;;;;;7.82;3.63;;;22.00;99.90;;;;;;6308173;22;20003;-91
2022/06/16 08:39:06;;;;;;;6.38;2.88;;;21.80;99.90;;;;;;6334608;22;20430;-92
2022/06/16 08:41:51;;;;;;;;;;;21.80;99.90;;;;;;6309691;22;19999;-91
2022/06/16 08:44:36;;;;;;;10.52;2.83;;;21.90;99.90;;;;;;6307952;22;20310;-92
2022/06/16 09:59:06;;;;;;;;;;;;;;;;;;;;;
2022/06/16 10:05:50;;;;;;;;;;;;;;;;;;;;;
2022/06/16 10:12:31;;;;;;;;;;;;;;;;;;;;;
2022/06/16 10:15:28;;;;;;;7.65;2.70;;;24.40;92.70;;;;;;5908712;24;20084;-93
2022/06/16 10:18:51;;;;;;;;;;;;;;;;;;;;;
2022/06/16 10:21:42;;;;;;;9.50;2.58;;;24.50;91.90;;;;;;6010375;23;20014;-92
2022/06/16 10:24:12;;;;;;;6.03;2.90;;;24.60;87.60;;;;;;6057290;23;20543;-92
2022/06/16 10:27:03;;;;;;;8.10;3.00;;;24.40;91.30;;;;;;6154409;23;20094;-91
2022/06/16 10:36:24;;;;;;;;;;;;;;;;;;;;;
2022/06/16 13:14:59;;;;;;;;;;;;;;;;;;;;;
2022/06/16 13:17:48;;;;;;;;;;;28.00;52.30;;;;;;6243671;23;20087;-92
2022/06/16 13:20:47;;;;;;;;;;;;;;;;;;;;;
2022/06/16 13:24:21;;;;;;;;;;;;;;;;;;;;;
2022/06/16 13:36:47;;;;;;;11.02;2.17;;;28.20;55.90;;;;;;6125194;23;20017;-92
2022/06/16 13:40:22;;;;;;;;;;;;;;;;;;;;;
2022/06/16 13:43:09;;;;;;;4.00;2.20;;;28.30;54.50;;;;;;6233270;23;20131;-93
2022/06/16 13:45:37;;;;;;;5.53;2.30;;;28.40;52.50;;;;;;6217197;23;20428;-93
2022/06/16 13:48:16;;;;;;;3.17;2.33;;;28.30;51.60;;;;;;6215793;23;20004;-91
2022/06/16 13:50:53;;;;;;;5.30;2.10;;;28.40;49.30;;;;;;6265122;22;20419;-91
2022/06/16 13:53:29;;;;;;;;;;;28.40;47.10;;;;;;6316768;22;19987;-91
2022/06/16 13:56:02;;;;;;;5.25;2.00;;;28.60;49.20;;;;;;6324054;22;19910;-92
2022/06/16 13:59:01;;;;;;;4.57;2.10;;;28.70;52.80;;;;;;6315363;22;20072;-92
2022/06/16 14:01:57;;;;;;;5.82;2.10;;;28.80;52.70;;;;;;6307830;22;20450;-93
2022/06/16 14:04:31;;;;;;;4.25;1.85;;;28.80;47.30;;;;;;6309210;22;20007;-92
2022/06/16 14:07:17;;;;;;;6.57;2.10;;;28.50;40.90;;;;;;6309768;22;20014;-91
2022/06/16 14:10:07;;;;;;;2.75;1.90;;;28.60;42.20;;;;;;6308804;22;20010;-91
2022/06/16 14:12:53;;;;;;;3.75;1.95;;;28.50;47.90;;;;;;6308839;22;20361;-92
2022/06/16 14:15:45;;;;;;;5.57;1.73;;;28.60;47.40;;;;;;6308876;22;20348;-92
2022/06/16 14:18:17;;;;;;;8.88;1.88;;;28.70;45.70;;;;;;6335667;22;20007;-92
2022/06/16 14:20:46;;;;;;;7.72;2.10;;;28.70;45.30;;;;;;6309584;22;20003;-92
2022/06/16 14:23:44;;;;;;;4.57;1.98;;;28.70;38.50;;;;;;6309638;22;20448;-91
2022/06/16 14:26:34;;;;;;;5.22;1.83;;;28.60;43.00;;;;;;6309585;22;19999;-92
2022/06/16 14:29:05;;;;;;;7.68;1.98;;;28.60;43.00;;;;;;6307832;22;20130;-91
2022/06/16 14:31:48;;;;;;;4.60;1.77;;;28.70;40.60;;;;;;6308636;22;20015;-91
2022/06/16 14:34:21;;;;;;;5.72;2.08;;;28.70;41.30;;;;;;6336245;22;20010;-91
2022/06/16 14:36:55;;;;;;;6.03;2.30;;;28.80;44.30;;;;;;6309428;22;20495;-92
2022/06/16 14:39:30;;;;;;;5.03;2.00;;;28.90;43.00;;;;;;6309162;22;20011;-92
2022/06/16 14:42:32;;;;;;;;;;;;;;;;;;;;;
2022/06/16 14:45:52;;;;;;;5.05;2.10;;;28.80;41.00;;;;;;6336450;22;20089;-93
2022/06/16 14:48:47;;;;;;;10.02;2.30;;;28.90;38.00;;;;;;6334863;22;20506;-92
2022/06/16 14:51:20;;;;;;;6.30;1.95;;;28.90;34.60;;;;;;6326812;22;20038;-91
2022/06/16 14:53:55;;;;;;;3.75;2.00;;;28.60;38.70;;;;;;6336870;22;20014;-90
2022/06/16 14:56:22;;;;;;;5.15;2.00;;;28.70;41.00;;;;;;6344509;22;20097;-92
2022/06/16 14:59:06;;;;;;;4.28;1.88;;;28.90;42.80;;;;;;6308352;22;19999;-92
2022/06/16 15:01:41;;;;;;;8.48;2.22;;;29.10;42.30;;;;;;6309771;22;20010;-92
2022/06/16 15:04:25;;;;;;;;;;;;;;;;;;;;;
2022/06/16 15:06:59;;;;;;;4.53;2.00;;;29.30;42.90;;;;;;6336502;22;20083;-91
2022/06/16 15:09:29;;;;;;;4.55;2.10;;;29.30;41.50;;;;;;6307917;22;20010;-91
2022/06/16 15:12:00;;;;;;;5.32;2.58;;;29.30;41.10;;;;;;6308203;22;20006;-91
2022/06/16 15:14:56;;;;;;;10.77;2.03;;;29.30;40.00;;;;;;6308257;22;20011;-92
2022/06/16 15:24:01;;;;;;;4.70;1.90;;;29.60;42.30;;;;;;6211864;23;20005;-93
2022/06/16 15:26:39;;;;;;;4.03;1.90;;;29.60;42.20;;;;;;6311485;22;20012;-91
2022/06/16 15:29:24;;;;;;;;;;;29.60;39.90;;;;;;6309948;22;19998;-93
2022/06/16 15:39:09;;;;;;;5.72;2.00;;;29.30;38.40;;;;;;6274697;22;20374;-93
2022/06/16 15:42:30;;;;;;;;;;;;;;;;;;;;;
2022/06/16 15:44:59;;;;;;;6.03;2.28;;;29.30;39.90;;;;;;6268543;22;20003;-93
2022/06/16 16:08:07;;;;;;;6.15;2.10;;;29.00;35.80;;;;;;5822580;24;20021;-93
2022/06/16 16:11:24;;;;;;;;;;;;;;;;;;;;;
2022/06/16 16:14:36;;;;;;;6.68;2.20;;;29.10;38.60;;;;;;6035544;23;20066;-92
2022/06/16 16:17:04;;;;;;;4.28;2.00;;;29.50;40.10;;;;;;6009371;23;20007;-90
2022/06/16 16:20:53;;;;;;;8.35;2.03;;;29.60;37.00;;;;;;6120327;23;20032;-94
2022/06/16 16:27:03;;;;;;;7.35;2.22;;;29.50;36.10;;;;;;6094147;23;20021;-93
2022/06/16 16:29:46;;;;;;;6.13;2.22;;;29.20;35.50;;;;;;6092179;23;20476;-91
2022/06/16 16:32:13;;;;;;;7.70;2.10;;;29.20;36.10;;;;;;6262288;22;20403;-90
2022/06/16 16:34:47;;;;;;;5.28;2.10;;;29.50;39.20;;;;;;6307776;22;20079;-90
2022/06/16 16:37:19;;;;;;;3.65;1.77;;;29.80;38.20;;;;;;6309235;22;20013;-91
2022/06/16 16:40:13;;;;;;;8.38;2.05;;;30.00;36.60;;;;;;6309156;22;20002;-91
2022/06/16 16:46:20;;;;;;;4.38;2.10;;;30.40;37.60;;;;;;6277961;22;20510;-92
2022/06/16 16:53:24;;;;;;;;;;;;;;;;;;;;;
2022/06/16 16:56:18;;;;;;;4.65;2.00;;;30.50;33.30;;;;;;6127496;23;20105;-89
2022/06/16 16:59:06;;;;;;;6.65;1.90;;;30.30;33.20;;;;;;6149154;23;20010;-90
2022/06/16 17:01:35;;;;;;;5.75;1.92;;;30.10;33.80;;;;;;6280904;22;19999;-91
2022/06/16 17:04:11;;;;;;;3.92;1.98;;;30.20;36.30;;;;;;6307031;22;20561;-91
2022/06/16 17:06:37;;;;;;;6.93;2.22;;;30.40;34.20;;;;;;6334892;22;20002;-90
2022/06/16 17:09:03;;;;;;;4.72;1.80;;;30.20;34.50;;;;;;6307278;22;20002;-91
2022/06/16 17:14:16;;;;;;;7.97;2.08;;;30.40;35.30;;;;;;6334499;22;20366;-91
2022/06/16 17:16:42;;;;;;;8.32;1.83;;;30.20;33.60;;;;;;6334781;22;20003;-90
2022/06/16 17:19:08;;;;;;;7.07;1.85;;;30.20;35.90;;;;;;6334582;22;19995;-89
2022/06/16 17:21:35;;;;;;;6.18;2.08;;;30.30;38.30;;;;;;6307504;22;20335;-90
2022/06/16 17:24:01;;;;;;;8.48;2.03;;;30.30;37.00;;;;;;6334804;22;20003;-91
2022/06/16 17:26:27;;;;;;;7.53;2.10;;;30.10;36.60;;;;;;6308022;22;20514;-91
2022/06/16 17:28:53;;;;;;;3.95;2.05;;;29.90;33.40;;;;;;6307653;22;20059;-89
2022/06/16 17:31:21;;;;;;;6.35;1.80;;;29.60;37.00;;;;;;6317334;22;20015;-90
2022/06/16 17:33:47;;;;;;;6.07;2.17;;;29.50;38.40;;;;;;6336789;22;20058;-89
2022/06/16 17:36:15;;;;;;;5.10;2.10;;;29.50;39.80;;;;;;6308094;22;20321;-91
2022/06/16 17:38:42;;;;;;;3.90;2.05;;;29.50;38.40;;;;;;6334971;22;20037;-90
2022/06/16 17:41:18;;;;;;;5.65;2.30;;;29.40;37.80;;;;;;6310204;22;20006;-91
2022/06/16 17:43:45;;;;;;;5.38;2.00;;;29.10;36.30;;;;;;6308479;22;20014;-90
2022/06/16 17:46:12;;;;;;;8.68;2.35;;;29.00;36.20;;;;;;6307474;22;20002;-90
2022/06/16 17:48:38;;;;;;;9.93;2.20;;;28.90;39.20;;;;;;6335346;22;19999;-90
2022/06/16 17:51:05;;;;;;;6.50;2.13;;;28.90;40.40;;;;;;6307513;22;20003;-90
2022/06/16 18:01:45;;;;;;;5.88;2.20;;;28.90;40.60;;;;;;6335116;22;20021;-90
2022/06/16 18:04:10;;;;;;;3.95;1.90;;;28.90;37.90;;;;;;6307445;22;20022;-90
2022/06/16 18:06:37;;;;;;;4.85;2.30;;;28.80;39.30;;;;;;6307108;22;20110;-90
2022/06/16 18:09:05;;;;;;;4.35;2.17;;;28.80;38.80;;;;;;6306953;22;20002;-90
2022/06/16 18:11:31;;;;;;;4.50;2.00;;;28.70;38.20;;;;;;6307453;22;20426;-90
2022/06/16 18:13:58;;;;;;;5.00;2.20;;;28.60;40.10;;;;;;6306886;22;20037;-91
2022/06/16 18:16:25;;;;;;;4.53;2.15;;;28.60;43.50;;;;;;6307504;22;20003;-90
2022/06/16 18:18:54;;;;;;;3.50;2.10;;;28.60;45.50;;;;;;6334646;22;20027;-90
2022/06/16 18:21:34;;;;;;;9.25;2.40;;;28.50;40.20;;;;;;6334289;22;20002;-89
2022/06/16 18:24:08;;;;;;;8.68;2.40;;;28.40;39.60;;;;;;6306296;22;20082;-89
2022/06/16 18:26:48;;;;;;;5.90;2.28;;;28.40;40.70;;;;;;6334639;22;19999;-89
2022/06/16 18:29:15;;;;;;;5.95;2.10;;;28.30;42.10;;;;;;6306327;22;20014;-91
2022/06/16 18:31:40;;;;;;;7.57;2.13;;;28.20;41.10;;;;;;6306582;22;20006;-89
2022/06/16 18:34:06;;;;;;;4.18;1.90;;;28.10;42.80;;;;;;6333467;22;20003;-90
2022/06/16 18:36:34;;;;;;;3.63;2.05;;;28.00;46.40;;;;;;6307137;22;20007;-90
2022/06/16 18:39:00;;;;;;;6.60;2.55;;;28.00;48.10;;;;;;6307199;22;19999;-90
2022/06/16 18:41:26;;;;;;;4.50;2.10;;;28.00;50.70;;;;;;6308186;22;20079;-91
2022/06/16 18:43:52;;;;;;;3.15;2.10;;;27.90;50.40;;;;;;6335730;22;20026;-90
2022/06/16 18:46:23;;;;;;;3.50;1.90;;;27.80;51.40;;;;;;6306972;22;20106;-91
2022/06/16 18:48:53;;;;;;;4.03;2.00;;;27.70;51.00;;;;;;6306666;22;20035;-89
2022/06/16 18:51:26;;;;;;;3.88;2.00;;;27.60;53.60;;;;;;6306758;22;20006;-89
2022/06/16 18:53:53;;;;;;;4.20;2.20;;;27.50;54.40;;;;;;6335009;22;20078;-90
2022/06/16 18:56:20;;;;;;;6.00;2.08;;;27.40;55.30;;;;;;6333926;22;20006;-90
2022/06/16 18:58:48;;;;;;;2.88;2.08;;;27.30;55.70;;;;;;6334742;22;20121;-91
2022/06/16 19:01:15;;;;;;;5.43;2.40;;;27.20;57.40;;;;;;6334426;22;20003;-91
2022/06/16 19:03:48;;;;;;;3.65;2.42;;;27.10;58.80;;;;;;6307153;22;20086;-90
2022/06/16 19:06:16;;;;;;;3.38;2.22;;;27.10;57.30;;;;;;6306632;22;20423;-90
2022/06/16 19:08:43;;;;;;;6.00;2.20;;;27.00;59.00;;;;;;6306947;22;20082;-91
2022/06/16 19:11:14;;;;;;;4.78;2.28;;;26.90;59.70;;;;;;6334417;22;19995;-92
2022/06/16 19:13:39;;;;;;;4.85;2.13;;;26.80;60.20;;;;;;6334644;22;20073;-89
2022/06/16 19:16:06;;;;;;;3.83;2.30;;;26.80;59.80;;;;;;6333891;22;20042;-90
2022/06/16 19:18:34;;;;;;;5.40;2.17;;;26.70;59.40;;;;;;6306917;22;20573;-89
2022/06/16 19:21:13;;;;;;;3.58;2.33;;;26.60;58.70;;;;;;6306842;22;20034;-91
2022/06/16 19:23:43;;;;;;;7.45;2.35;;;26.40;58.20;;;;;;6306658;22;20338;-89
2022/06/16 19:26:13;;;;;;;6.60;2.30;;;26.40;58.00;;;;;;6305796;22;20006;-88
2022/06/16 19:28:39;;;;;;;11.35;2.92;;;26.30;59.20;;;;;;6306404;22;20042;-89
2022/06/16 19:31:05;;;;;;;6.18;2.55;;;26.20;70.70;;;;;;6306473;22;20011;-89
2022/06/16 19:33:31;;;;;;;4.72;2.80;;;26.00;77.20;;;;;;6306044;22;20009;-92
2022/06/16 19:35:58;;;;;;;5.20;2.95;;;26.20;76.70;;;;;;6334272;22;20356;-89
2022/06/16 19:38:50;;;;;;;5.83;2.73;;;26.20;74.50;;;;;;6306723;22;20082;-89
2022/06/16 19:41:19;;;;;;;5.55;2.42;;;26.00;75.20;;;;;;6334117;22;20239;-89
2022/06/16 19:52:11;;;;;;;3.88;2.60;;;25.70;79.20;;;;;;6334974;22;20495;-91
2022/06/16 19:54:41;;;;;;;8.35;2.65;;;25.70;82.60;;;;;;6308878;22;20086;-91
2022/06/16 20:14:43;;;;;;;;;;;;;;;;;;;;;
2022/06/16 20:21:07;;;;;;;;;;;;;;;;;;;;;
2022/06/16 20:23:50;;;;;;;;;;;;;;;;;;;;;
2022/06/16 20:33:56;;;;;;;;;;;;;;;;;;;;;
2022/06/16 20:40:35;;;;;;;;;;;;;;;;;;;;;
2022/06/16 20:43:25;;;;;;;6.80;2.87;;;24.00;78.80;;;;;;6323160;22;19999;-89
2022/06/16 20:46:40;;;;;;;;;;;;;;;;;;;;;
2022/06/16 20:49:47;;;;;;;;;;;;;;;;;;;;;
2022/06/16 20:52:37;;;;;;;4.22;2.58;;;23.60;90.50;;;;;;6336574;22;20077;-90
2022/06/16 20:55:46;;;;;;;;;;;;;;;;;;;;;
2022/06/16 21:04:23;;;;;;;11.65;3.00;;;23.10;95.20;;;;;;6336028;22;20084;-92
2022/06/16 21:07:22;;;;;;;;;;;;;;;;;;;;;
2022/06/16 21:13:11;;;;;;;7.82;3.10;;;22.80;99.40;;;;;;6211893;23;20008;-92
2022/06/16 21:19:37;;;;;;;;;;;;;;;;;;;;;
2022/06/16 21:26:10;;;;;;;;;;;;;;;;;;;;;
2022/06/16 21:32:24;;;;;;;;;;;;;;;;;;;;;
2022/06/16 21:34:49;;;;;;;6.47;2.75;;;22.50;97.50;;;;;;6139847;23;20013;-93
2022/06/16 21:37:53;;;;;;;;;;;;;;;;;;;;;
2022/06/16 21:40:35;;;;;;;;;;;;;;;;;;;;;
2022/06/16 21:43:52;;;;;;;;;;;;;;;;;;;;;
2022/06/16 21:46:43;;;;;;;3.90;2.30;;;22.40;98.60;;;;;;6336840;22;20090;-93
2022/06/16 21:49:32;;;;;;;8.30;2.90;;;22.40;97.20;;;;;;6292342;22;20435;-93
2022/06/16 21:52:53;;;;;;;;;;;;;;;;;;;;;
2022/06/16 21:55:24;;;;;;;7.85;2.35;;;22.30;98.90;;;;;;6324319;22;20063;-93
2022/06/16 21:58:21;;;;;;;7.53;2.85;;;22.40;99.90;;;;;;6309405;22;20002;-93
2022/06/16 22:00:53;;;;;;;;;;;;;;;;;;;;;
2022/06/16 22:04:03;;;;;;;4.53;2.35;;;22.30;97.40;;;;;;6336859;22;20085;-93
2022/06/16 22:07:18;;;;;;;4.30;2.60;;;22.30;95.60;;;;;;6259693;22;20006;-92
2022/06/16 22:13:26;;;;;;;;;;;;;;;;;;;;;
2022/06/16 22:19:22;;;;;;;;;;;;;;;;;;;;;
2022/06/16 22:22:05;;;;;;;;;;;;;;;;;;;;;
2022/06/16 22:32:00;;;;;;;;;;;;;;;;;;;;;
2022/06/16 22:37:34;;;;;;;4.35;2.65;;;21.50;99.90;;;;;;6001707;23;20065;-89
2022/06/16 22:40:37;;;;;;;;;;;;;;;;;;;;;
2022/06/16 22:43:59;;;;;;;;;;;;;;;;;;;;;
2022/06/16 22:47:04;;;;;;;;;;;;;;;;;;;;;
2022/06/16 22:49:50;;;;;;;;;;;;;;;;;;;;;
2022/06/16 23:09:00;;;;;;;;;;;;;;;;;;;;;
2022/06/16 23:15:11;;;;;;;5.82;2.60;;;21.20;99.90;;;;;;6168647;23;20008;-93
2022/06/16 23:21:27;;;;;;;;;;;;;;;;;;;;;
2022/06/16 23:23:53;;;;;;;6.05;2.97;;;21.00;99.90;;;;;;6231627;23;20000;-92
2022/06/16 23:26:56;;;;;;;6.43;3.00;;;20.90;99.90;;;;;;6214945;23;20083;-93
2022/06/16 23:30:14;;;;;;;3.22;2.72;;;20.90;99.90;;;;;;6216049;23;20391;-92
2022/06/16 23:33:19;;;;;;;4.75;2.78;;;20.80;99.90;;;;;;6209470;23;20008;-92
2022/06/16 23:36:11;;;;;;;8.00;3.15;;;20.70;99.90;;;;;;6234754;23;20492;-92
2022/06/16 23:39:16;;;;;;;;;;;;;;;;;;;;;
2022/06/16 23:45:58;;;;;;;;;;;;;;;;;;;;;
2022/06/16 23:49:36;;;;;;;;;;;;;;;;;;;;;
